sensor_id;sensor_type;location;lat;lon;timestamp;temperature;humidity
13436;DHT22;6790;49.520;8.504;2023-05-29T00:01:21;14.80;93.40
13436;DHT22;6790;49.520;8.504;2023-05-29T00:03:49;14.80;94.20
13436;DHT22;6790;49.520;8.504;2023-05-29T00:06:15;14.70;93.80
13436;DHT22;6790;49.520;8.504;2023-05-29T00:08:41;14.70;94.20
13436;DHT22;6790;49.520;8.504;2023-05-29T00:11:07;14.60;94.40
13436;DHT22;6790;49.520;8.504;2023-05-29T00:13:32;14.60;94.40
13436;DHT22;6790;49.520;8.504;2023-05-29T00:15:58;14.60;94.20
13436;DHT22;6790;49.520;8.504;2023-05-29T00:18:26;14.50;94.00
13436;DHT22;6790;49.520;8.504;2023-05-29T00:20:52;14.50;95.00
13436;DHT22;6790;49.520;8.504;2023-05-29T00:23:19;14.50;93.80
13436;DHT22;6790;49.520;8.504;2023-05-29T00:25:44;14.50;94.20
13436;DHT22;6790;49.520;8.504;2023-05-29T00:28:10;14.50;94.30
13436;DHT22;6790;49.520;8.504;2023-05-29T00:30:38;14.40;94.40
13436;DHT22;6790;49.520;8.504;2023-05-29T00:33:04;14.40;94.70
13436;DHT22;6790;49.520;8.504;2023-05-29T00:35:30;14.30;94.80
13436;DHT22;6790;49.520;8.504;2023-05-29T00:37:56;14.30;94.90
13436;DHT22;6790;49.520;8.504;2023-05-29T00:40:22;14.20;94.90
13436;DHT22;6790;49.520;8.504;2023-05-29T00:42:48;14.30;94.90
13436;DHT22;6790;49.520;8.504;2023-05-29T00:45:14;14.20;94.90
13436;DHT22;6790;49.520;8.504;2023-05-29T00:47:41;14.20;95.40
13436;DHT22;6790;49.520;8.504;2023-05-29T00:50:08;14.10;95.40
13436;DHT22;6790;49.520;8.504;2023-05-29T00:52:35;14.10;95.80
13436;DHT22;6790;49.520;8.504;2023-05-29T00:55:01;14.00;95.60
13436;DHT22;6790;49.520;8.504;2023-05-29T00:57:28;14.00;95.80
13436;DHT22;6790;49.520;8.504;2023-05-29T00:59:55;14.00;95.90
13436;DHT22;6790;49.520;8.504;2023-05-29T01:02:21;14.10;96.60
13436;DHT22;6790;49.520;8.504;2023-05-29T01:04:48;14.10;95.50
13436;DHT22;6790;49.520;8.504;2023-05-29T01:07:14;14.10;95.40
13436;DHT22;6790;49.520;8.504;2023-05-29T01:09:40;14.00;95.30
13436;DHT22;6790;49.520;8.504;2023-05-29T01:12:43;14.10;96.00
13436;DHT22;6790;49.520;8.504;2023-05-29T01:19:04;14.00;95.70
13436;DHT22;6790;49.520;8.504;2023-05-29T01:21:56;14.10;96.60
13436;DHT22;6790;49.520;8.504;2023-05-29T01:27:24;14.00;96.50
13436;DHT22;6790;49.520;8.504;2023-05-29T01:29:52;13.80;96.70
13436;DHT22;6790;49.520;8.504;2023-05-29T01:32:18;13.90;97.20
13436;DHT22;6790;49.520;8.504;2023-05-29T01:34:45;13.90;97.80
13436;DHT22;6790;49.520;8.504;2023-05-29T01:37:11;14.00;98.20
13436;DHT22;6790;49.520;8.504;2023-05-29T01:39:36;13.90;98.10
13436;DHT22;6790;49.520;8.504;2023-05-29T01:42:03;13.90;97.90
13436;DHT22;6790;49.520;8.504;2023-05-29T01:44:29;13.80;98.60
13436;DHT22;6790;49.520;8.504;2023-05-29T01:46:55;13.90;97.90
13436;DHT22;6790;49.520;8.504;2023-05-29T01:49:23;14.00;98.10
13436;DHT22;6790;49.520;8.504;2023-05-29T01:51:49;13.90;98.70
13436;DHT22;6790;49.520;8.504;2023-05-29T01:54:15;13.90;98.70
13436;DHT22;6790;49.520;8.504;2023-05-29T01:56:41;13.90;98.50
13436;DHT22;6790;49.520;8.504;2023-05-29T01:59:08;13.90;99.80
13436;DHT22;6790;49.520;8.504;2023-05-29T02:01:34;13.80;99.90
13436;DHT22;6790;49.520;8.504;2023-05-29T02:04:00;13.60;99.80
13436;DHT22;6790;49.520;8.504;2023-05-29T02:06:25;13.60;99.90
13436;DHT22;6790;49.520;8.504;2023-05-29T02:08:51;13.60;99.90
13436;DHT22;6790;49.520;8.504;2023-05-29T02:11:17;13.50;99.90
13436;DHT22;6790;49.520;8.504;2023-05-29T02:13:42;13.50;99.90
13436;DHT22;6790;49.520;8.504;2023-05-29T02:16:08;13.40;99.90
13436;DHT22;6790;49.520;8.504;2023-05-29T02:18:34;13.30;99.90
13436;DHT22;6790;49.520;8.504;2023-05-29T02:21:00;13.30;99.90
13436;DHT22;6790;49.520;8.504;2023-05-29T02:23:26;13.30;99.90
13436;DHT22;6790;49.520;8.504;2023-05-29T02:25:52;13.30;99.90
13436;DHT22;6790;49.520;8.504;2023-05-29T02:28:17;13.30;99.90
13436;DHT22;6790;49.520;8.504;2023-05-29T02:30:43;13.20;99.90
13436;DHT22;6790;49.520;8.504;2023-05-29T02:33:09;13.20;99.90
13436;DHT22;6790;49.520;8.504;2023-05-29T02:35:34;13.20;99.90
13436;DHT22;6790;49.520;8.504;2023-05-29T02:38:00;13.20;99.90
13436;DHT22;6790;49.520;8.504;2023-05-29T02:40:26;13.20;99.90
13436;DHT22;6790;49.520;8.504;2023-05-29T02:42:51;13.10;99.90
13436;DHT22;6790;49.520;8.504;2023-05-29T02:45:17;13.00;99.90
13436;DHT22;6790;49.520;8.504;2023-05-29T02:47:43;13.10;99.90
13436;DHT22;6790;49.520;8.504;2023-05-29T02:50:09;13.10;99.90
13436;DHT22;6790;49.520;8.504;2023-05-29T02:52:35;13.10;99.90
13436;DHT22;6790;49.520;8.504;2023-05-29T02:55:05;13.10;99.90
13436;DHT22;6790;49.520;8.504;2023-05-29T02:57:31;13.10;99.90
13436;DHT22;6790;49.520;8.504;2023-05-29T02:59:57;13.00;99.90
13436;DHT22;6790;49.520;8.504;2023-05-29T03:02:23;13.00;99.90
13436;DHT22;6790;49.520;8.504;2023-05-29T03:04:49;12.90;99.90
13436;DHT22;6790;49.520;8.504;2023-05-29T03:07:16;12.90;99.90
13436;DHT22;6790;49.520;8.504;2023-05-29T03:09:42;12.80;99.90
13436;DHT22;6790;49.520;8.504;2023-05-29T03:12:08;12.80;99.90
13436;DHT22;6790;49.520;8.504;2023-05-29T03:14:33;12.70;99.90
13436;DHT22;6790;49.520;8.504;2023-05-29T03:17:03;12.70;99.90
13436;DHT22;6790;49.520;8.504;2023-05-29T03:19:29;12.70;99.90
13436;DHT22;6790;49.520;8.504;2023-05-29T03:21:55;12.70;99.90
13436;DHT22;6790;49.520;8.504;2023-05-29T03:24:20;12.60;99.90
13436;DHT22;6790;49.520;8.504;2023-05-29T03:26:46;12.50;99.90
13436;DHT22;6790;49.520;8.504;2023-05-29T03:29:12;12.50;99.90
13436;DHT22;6790;49.520;8.504;2023-05-29T03:31:37;12.40;99.90
13436;DHT22;6790;49.520;8.504;2023-05-29T03:34:03;12.40;99.90
13436;DHT22;6790;49.520;8.504;2023-05-29T03:36:29;12.30;99.90
13436;DHT22;6790;49.520;8.504;2023-05-29T03:38:54;12.30;99.90
13436;DHT22;6790;49.520;8.504;2023-05-29T03:41:20;12.30;99.90
13436;DHT22;6790;49.520;8.504;2023-05-29T03:43:46;12.30;99.90
13436;DHT22;6790;49.520;8.504;2023-05-29T03:46:12;12.30;99.90
13436;DHT22;6790;49.520;8.504;2023-05-29T03:48:37;12.30;99.90
13436;DHT22;6790;49.520;8.504;2023-05-29T03:51:04;12.30;99.90
13436;DHT22;6790;49.520;8.504;2023-05-29T03:53:30;12.40;99.90
13436;DHT22;6790;49.520;8.504;2023-05-29T03:55:56;12.40;99.90
13436;DHT22;6790;49.520;8.504;2023-05-29T03:58:22;12.40;99.90
13436;DHT22;6790;49.520;8.504;2023-05-29T04:00:47;12.50;99.90
13436;DHT22;6790;49.520;8.504;2023-05-29T04:03:13;12.50;99.90
13436;DHT22;6790;49.520;8.504;2023-05-29T04:05:39;12.60;99.90
13436;DHT22;6790;49.520;8.504;2023-05-29T04:08:05;12.60;99.90
13436;DHT22;6790;49.520;8.504;2023-05-29T04:10:31;12.70;99.90
13436;DHT22;6790;49.520;8.504;2023-05-29T04:12:59;12.70;99.90
13436;DHT22;6790;49.520;8.504;2023-05-29T04:15:26;12.70;99.90
13436;DHT22;6790;49.520;8.504;2023-05-29T04:17:53;12.80;99.90
13436;DHT22;6790;49.520;8.504;2023-05-29T04:20:20;12.80;99.90
13436;DHT22;6790;49.520;8.504;2023-05-29T04:22:46;12.90;99.90
13436;DHT22;6790;49.520;8.504;2023-05-29T04:25:12;12.90;99.90
13436;DHT22;6790;49.520;8.504;2023-05-29T04:27:37;13.00;99.90
13436;DHT22;6790;49.520;8.504;2023-05-29T04:30:05;13.10;99.90
13436;DHT22;6790;49.520;8.504;2023-05-29T04:32:31;13.20;99.90
13436;DHT22;6790;49.520;8.504;2023-05-29T04:34:58;13.20;99.90
13436;DHT22;6790;49.520;8.504;2023-05-29T04:37:28;13.30;99.90
13436;DHT22;6790;49.520;8.504;2023-05-29T04:39:57;13.30;99.90
13436;DHT22;6790;49.520;8.504;2023-05-29T04:42:23;13.30;99.90
13436;DHT22;6790;49.520;8.504;2023-05-29T04:44:51;13.40;99.90
13436;DHT22;6790;49.520;8.504;2023-05-29T04:47:18;13.50;99.90
13436;DHT22;6790;49.520;8.504;2023-05-29T04:49:44;13.50;99.90
13436;DHT22;6790;49.520;8.504;2023-05-29T04:52:14;13.50;99.90
13436;DHT22;6790;49.520;8.504;2023-05-29T04:54:41;13.60;99.90
13436;DHT22;6790;49.520;8.504;2023-05-29T04:57:06;13.70;99.90
13436;DHT22;6790;49.520;8.504;2023-05-29T04:59:32;13.70;99.90
13436;DHT22;6790;49.520;8.504;2023-05-29T05:01:58;13.80;99.90
13436;DHT22;6790;49.520;8.504;2023-05-29T05:04:23;13.80;99.90
13436;DHT22;6790;49.520;8.504;2023-05-29T05:06:50;13.90;99.90
13436;DHT22;6790;49.520;8.504;2023-05-29T05:09:16;14.00;99.90
13436;DHT22;6790;49.520;8.504;2023-05-29T05:11:42;14.10;99.90
13436;DHT22;6790;49.520;8.504;2023-05-29T05:14:08;14.10;99.90
13436;DHT22;6790;49.520;8.504;2023-05-29T05:16:34;14.20;99.90
13436;DHT22;6790;49.520;8.504;2023-05-29T05:18:59;14.30;99.90
13436;DHT22;6790;49.520;8.504;2023-05-29T05:21:25;14.40;99.90
13436;DHT22;6790;49.520;8.504;2023-05-29T05:23:51;14.40;99.10
13436;DHT22;6790;49.520;8.504;2023-05-29T05:26:16;14.50;99.20
13436;DHT22;6790;49.520;8.504;2023-05-29T05:28:42;14.70;98.80
13436;DHT22;6790;49.520;8.504;2023-05-29T05:31:08;14.80;98.80
13436;DHT22;6790;49.520;8.504;2023-05-29T05:33:34;14.80;98.20
13436;DHT22;6790;49.520;8.504;2023-05-29T05:36:00;14.90;97.50
13436;DHT22;6790;49.520;8.504;2023-05-29T05:38:26;15.10;97.60
13436;DHT22;6790;49.520;8.504;2023-05-29T05:40:51;15.30;97.70
13436;DHT22;6790;49.520;8.504;2023-05-29T05:43:17;15.30;97.20
13436;DHT22;6790;49.520;8.504;2023-05-29T05:45:43;15.30;97.10
13436;DHT22;6790;49.520;8.504;2023-05-29T05:48:08;15.40;96.70
13436;DHT22;6790;49.520;8.504;2023-05-29T05:50:34;15.60;96.70
13436;DHT22;6790;49.520;8.504;2023-05-29T05:53:00;15.60;96.20
13436;DHT22;6790;49.520;8.504;2023-05-29T05:55:26;15.80;96.10
13436;DHT22;6790;49.520;8.504;2023-05-29T05:57:53;15.90;96.30
13436;DHT22;6790;49.520;8.504;2023-05-29T06:00:22;16.00;95.90
13436;DHT22;6790;49.520;8.504;2023-05-29T06:02:48;16.10;94.80
13436;DHT22;6790;49.520;8.504;2023-05-29T06:05:14;16.20;95.70
13436;DHT22;6790;49.520;8.504;2023-05-29T06:07:39;16.30;95.70
13436;DHT22;6790;49.520;8.504;2023-05-29T06:10:06;16.50;95.20
13436;DHT22;6790;49.520;8.504;2023-05-29T06:12:33;16.50;94.70
13436;DHT22;6790;49.520;8.504;2023-05-29T06:15:00;16.70;95.70
13436;DHT22;6790;49.520;8.504;2023-05-29T06:17:25;16.80;94.50
13436;DHT22;6790;49.520;8.504;2023-05-29T06:19:52;16.80;94.60
13436;DHT22;6790;49.520;8.504;2023-05-29T06:22:18;17.00;94.80
13436;DHT22;6790;49.520;8.504;2023-05-29T06:24:44;17.00;94.40
13436;DHT22;6790;49.520;8.504;2023-05-29T06:27:10;17.10;94.40
13436;DHT22;6790;49.520;8.504;2023-05-29T06:29:36;17.10;92.90
13436;DHT22;6790;49.520;8.504;2023-05-29T06:32:02;17.10;92.10
13436;DHT22;6790;49.520;8.504;2023-05-29T06:34:27;17.40;92.80
13436;DHT22;6790;49.520;8.504;2023-05-29T06:36:53;17.60;93.00
13436;DHT22;6790;49.520;8.504;2023-05-29T06:39:18;17.70;91.30
13436;DHT22;6790;49.520;8.504;2023-05-29T06:41:45;17.60;92.10
13436;DHT22;6790;49.520;8.504;2023-05-29T06:44:11;17.80;91.40
13436;DHT22;6790;49.520;8.504;2023-05-29T06:46:37;17.90;91.00
13436;DHT22;6790;49.520;8.504;2023-05-29T06:49:03;17.90;91.40
13436;DHT22;6790;49.520;8.504;2023-05-29T06:51:28;18.00;91.10
13436;DHT22;6790;49.520;8.504;2023-05-29T06:53:54;18.10;91.50
13436;DHT22;6790;49.520;8.504;2023-05-29T06:56:20;18.30;91.10
13436;DHT22;6790;49.520;8.504;2023-05-29T06:58:47;18.40;91.30
13436;DHT22;6790;49.520;8.504;2023-05-29T07:01:13;18.40;91.10
13436;DHT22;6790;49.520;8.504;2023-05-29T07:03:38;18.60;88.90
13436;DHT22;6790;49.520;8.504;2023-05-29T07:06:04;18.60;87.90
13436;DHT22;6790;49.520;8.504;2023-05-29T07:08:31;18.70;87.50
13436;DHT22;6790;49.520;8.504;2023-05-29T07:10:57;18.80;89.40
13436;DHT22;6790;49.520;8.504;2023-05-29T07:13:25;19.00;90.10
13436;DHT22;6790;49.520;8.504;2023-05-29T07:15:51;19.00;87.60
13436;DHT22;6790;49.520;8.504;2023-05-29T07:18:17;19.20;87.00
13436;DHT22;6790;49.520;8.504;2023-05-29T07:20:43;19.40;86.00
13436;DHT22;6790;49.520;8.504;2023-05-29T07:23:08;19.60;83.50
13436;DHT22;6790;49.520;8.504;2023-05-29T07:25:34;19.70;83.70
13436;DHT22;6790;49.520;8.504;2023-05-29T07:28:00;19.60;81.00
13436;DHT22;6790;49.520;8.504;2023-05-29T07:30:25;19.80;80.40
13436;DHT22;6790;49.520;8.504;2023-05-29T07:32:51;20.10;81.00
13436;DHT22;6790;49.520;8.504;2023-05-29T07:35:17;20.10;79.60
13436;DHT22;6790;49.520;8.504;2023-05-29T07:37:42;20.30;77.00
13436;DHT22;6790;49.520;8.504;2023-05-29T07:40:08;20.50;77.30
13436;DHT22;6790;49.520;8.504;2023-05-29T07:42:35;20.40;77.70
13436;DHT22;6790;49.520;8.504;2023-05-29T07:45:01;20.70;74.10
13436;DHT22;6790;49.520;8.504;2023-05-29T07:47:27;20.90;72.10
13436;DHT22;6790;49.520;8.504;2023-05-29T07:49:52;21.10;70.00
13436;DHT22;6790;49.520;8.504;2023-05-29T07:52:18;21.20;67.80
13436;DHT22;6790;49.520;8.504;2023-05-29T07:54:44;21.10;64.50
13436;DHT22;6790;49.520;8.504;2023-05-29T07:57:10;21.40;64.30
13436;DHT22;6790;49.520;8.504;2023-05-29T07:59:42;21.30;60.60
13436;DHT22;6790;49.520;8.504;2023-05-29T08:02:08;21.50;63.40
13436;DHT22;6790;49.520;8.504;2023-05-29T08:04:34;21.80;62.50
13436;DHT22;6790;49.520;8.504;2023-05-29T08:07:01;21.90;63.00
13436;DHT22;6790;49.520;8.504;2023-05-29T08:09:29;21.90;57.80
13436;DHT22;6790;49.520;8.504;2023-05-29T08:11:54;22.00;56.00
13436;DHT22;6790;49.520;8.504;2023-05-29T08:14:20;22.10;56.60
13436;DHT22;6790;49.520;8.504;2023-05-29T08:16:46;22.30;56.00
13436;DHT22;6790;49.520;8.504;2023-05-29T08:19:12;22.40;53.00
13436;DHT22;6790;49.520;8.504;2023-05-29T08:21:37;22.60;54.90
13436;DHT22;6790;49.520;8.504;2023-05-29T08:24:04;22.80;53.50
13436;DHT22;6790;49.520;8.504;2023-05-29T08:26:32;22.70;53.70
13436;DHT22;6790;49.520;8.504;2023-05-29T08:28:58;22.70;51.80
13436;DHT22;6790;49.520;8.504;2023-05-29T08:31:24;22.90;50.00
13436;DHT22;6790;49.520;8.504;2023-05-29T08:33:53;22.80;53.00
13436;DHT22;6790;49.520;8.504;2023-05-29T08:36:19;23.10;53.70
13436;DHT22;6790;49.520;8.504;2023-05-29T08:38:50;23.30;52.90
13436;DHT22;6790;49.520;8.504;2023-05-29T08:41:51;23.20;54.40
13436;DHT22;6790;49.520;8.504;2023-05-29T08:44:25;23.50;50.80
13436;DHT22;6790;49.520;8.504;2023-05-29T08:46:56;23.60;48.60
13436;DHT22;6790;49.520;8.504;2023-05-29T08:49:22;23.90;45.40
13436;DHT22;6790;49.520;8.504;2023-05-29T08:52:02;23.70;44.90
13436;DHT22;6790;49.520;8.504;2023-05-29T08:54:34;23.50;43.70
13436;DHT22;6790;49.520;8.504;2023-05-29T08:57:00;23.70;48.50
13436;DHT22;6790;49.520;8.504;2023-05-29T08:59:27;23.90;43.70
13436;DHT22;6790;49.520;8.504;2023-05-29T09:01:55;24.00;47.00
13436;DHT22;6790;49.520;8.504;2023-05-29T09:04:21;24.20;44.60
13436;DHT22;6790;49.520;8.504;2023-05-29T09:06:46;24.30;42.60
13436;DHT22;6790;49.520;8.504;2023-05-29T09:09:12;24.00;42.60
13436;DHT22;6790;49.520;8.504;2023-05-29T09:11:38;24.10;44.40
13436;DHT22;6790;49.520;8.504;2023-05-29T09:14:03;24.40;40.70
13436;DHT22;6790;49.520;8.504;2023-05-29T09:16:29;24.30;41.20
13436;DHT22;6790;49.520;8.504;2023-05-29T09:19:05;24.50;43.00
13436;DHT22;6790;49.520;8.504;2023-05-29T09:21:34;24.50;41.50
13436;DHT22;6790;49.520;8.504;2023-05-29T09:24:04;24.80;40.90
13436;DHT22;6790;49.520;8.504;2023-05-29T09:26:31;25.20;40.40
13436;DHT22;6790;49.520;8.504;2023-05-29T09:28:57;25.20;39.10
13436;DHT22;6790;49.520;8.504;2023-05-29T09:31:23;25.30;41.90
13436;DHT22;6790;49.520;8.504;2023-05-29T09:33:49;25.50;41.10
13436;DHT22;6790;49.520;8.504;2023-05-29T09:36:22;25.60;39.20
13436;DHT22;6790;49.520;8.504;2023-05-29T09:38:48;25.40;38.50
13436;DHT22;6790;49.520;8.504;2023-05-29T09:41:20;25.30;36.00
13436;DHT22;6790;49.520;8.504;2023-05-29T09:43:49;25.50;38.20
13436;DHT22;6790;49.520;8.504;2023-05-29T09:46:15;25.50;38.50
13436;DHT22;6790;49.520;8.504;2023-05-29T09:48:45;25.40;40.00
13436;DHT22;6790;49.520;8.504;2023-05-29T09:51:23;25.70;34.80
13436;DHT22;6790;49.520;8.504;2023-05-29T09:53:49;26.10;36.80
13436;DHT22;6790;49.520;8.504;2023-05-29T09:56:17;25.80;38.10
13436;DHT22;6790;49.520;8.504;2023-05-29T09:58:43;25.90;38.80
13436;DHT22;6790;49.520;8.504;2023-05-29T10:01:14;25.80;34.40
13436;DHT22;6790;49.520;8.504;2023-05-29T10:03:43;25.90;36.00
13436;DHT22;6790;49.520;8.504;2023-05-29T10:06:15;25.80;34.50
13436;DHT22;6790;49.520;8.504;2023-05-29T10:08:47;26.10;33.40
13436;DHT22;6790;49.520;8.504;2023-05-29T10:11:20;26.00;32.90
13436;DHT22;6790;49.520;8.504;2023-05-29T10:13:51;26.10;32.60
13436;DHT22;6790;49.520;8.504;2023-05-29T10:16:21;26.10;33.60
13436;DHT22;6790;49.520;8.504;2023-05-29T10:18:53;26.00;32.30
13436;DHT22;6790;49.520;8.504;2023-05-29T10:21:21;26.20;29.50
13436;DHT22;6790;49.520;8.504;2023-05-29T10:23:49;26.50;29.30
13436;DHT22;6790;49.520;8.504;2023-05-29T10:26:24;26.30;30.90
13436;DHT22;6790;49.520;8.504;2023-05-29T10:37:52;26.70;30.20
13436;DHT22;6790;49.520;8.504;2023-05-29T10:40:24;26.80;29.40
13436;DHT22;6790;49.520;8.504;2023-05-29T10:42:52;26.90;33.60
13436;DHT22;6790;49.520;8.504;2023-05-29T10:47:54;26.60;29.50
13436;DHT22;6790;49.520;8.504;2023-05-29T10:50:45;26.40;29.80
13436;DHT22;6790;49.520;8.504;2023-05-29T10:53:26;26.30;31.00
13436;DHT22;6790;49.520;8.504;2023-05-29T10:55:53;25.90;29.50
13436;DHT22;6790;49.520;8.504;2023-05-29T10:58:23;26.10;29.40
13436;DHT22;6790;49.520;8.504;2023-05-29T11:00:50;26.70;29.70
13436;DHT22;6790;49.520;8.504;2023-05-29T11:03:30;26.90;31.10
13436;DHT22;6790;49.520;8.504;2023-05-29T11:06:07;26.90;27.90
13436;DHT22;6790;49.520;8.504;2023-05-29T11:08:45;26.40;26.90
13436;DHT22;6790;49.520;8.504;2023-05-29T11:11:33;26.60;28.90
13436;DHT22;6790;49.520;8.504;2023-05-29T11:14:03;26.90;28.60
13436;DHT22;6790;49.520;8.504;2023-05-29T11:19:08;27.00;32.60
13436;DHT22;6790;49.520;8.504;2023-05-29T11:24:28;27.30;29.50
13436;DHT22;6790;49.520;8.504;2023-05-29T11:26:56;27.40;28.10
13436;DHT22;6790;49.520;8.504;2023-05-29T11:29:28;27.10;26.60
13436;DHT22;6790;49.520;8.504;2023-05-29T11:32:04;26.70;28.60
13436;DHT22;6790;49.520;8.504;2023-05-29T11:34:31;27.10;30.70
13436;DHT22;6790;49.520;8.504;2023-05-29T11:37:02;27.30;27.30
13436;DHT22;6790;49.520;8.504;2023-05-29T11:39:28;26.60;28.20
13436;DHT22;6790;49.520;8.504;2023-05-29T11:41:55;26.90;28.70
13436;DHT22;6790;49.520;8.504;2023-05-29T11:44:24;26.90;26.70
13436;DHT22;6790;49.520;8.504;2023-05-29T11:47:03;27.30;28.50
13436;DHT22;6790;49.520;8.504;2023-05-29T11:49:31;27.20;26.50
13436;DHT22;6790;49.520;8.504;2023-05-29T11:52:12;27.00;26.00
13436;DHT22;6790;49.520;8.504;2023-05-29T11:54:42;27.30;27.10
13436;DHT22;6790;49.520;8.504;2023-05-29T11:57:20;27.10;26.30
13436;DHT22;6790;49.520;8.504;2023-05-29T11:59:47;27.30;24.80
13436;DHT22;6790;49.520;8.504;2023-05-29T12:02:14;27.30;25.90
13436;DHT22;6790;49.520;8.504;2023-05-29T12:04:40;27.20;26.50
13436;DHT22;6790;49.520;8.504;2023-05-29T12:07:18;27.40;26.90
13436;DHT22;6790;49.520;8.504;2023-05-29T12:09:44;27.80;25.60
13436;DHT22;6790;49.520;8.504;2023-05-29T12:12:10;27.80;25.40
13436;DHT22;6790;49.520;8.504;2023-05-29T12:14:35;27.70;25.90
13436;DHT22;6790;49.520;8.504;2023-05-29T12:17:01;27.40;25.20
13436;DHT22;6790;49.520;8.504;2023-05-29T12:19:27;27.60;24.50
13436;DHT22;6790;49.520;8.504;2023-05-29T12:21:53;27.50;27.40
13436;DHT22;6790;49.520;8.504;2023-05-29T12:24:19;27.40;25.30
13436;DHT22;6790;49.520;8.504;2023-05-29T12:26:45;27.40;24.60
13436;DHT22;6790;49.520;8.504;2023-05-29T12:29:12;27.80;24.70
13436;DHT22;6790;49.520;8.504;2023-05-29T12:31:38;27.60;24.60
13436;DHT22;6790;49.520;8.504;2023-05-29T12:34:11;27.80;24.70
13436;DHT22;6790;49.520;8.504;2023-05-29T12:36:41;28.20;24.30
13436;DHT22;6790;49.520;8.504;2023-05-29T12:39:08;28.10;25.30
13436;DHT22;6790;49.520;8.504;2023-05-29T12:41:35;28.30;25.70
13436;DHT22;6790;49.520;8.504;2023-05-29T12:44:03;28.40;23.90
13436;DHT22;6790;49.520;8.504;2023-05-29T12:46:38;28.40;25.90
13436;DHT22;6790;49.520;8.504;2023-05-29T12:49:16;28.60;26.70
13436;DHT22;6790;49.520;8.504;2023-05-29T12:51:45;28.50;26.80
13436;DHT22;6790;49.520;8.504;2023-05-29T12:54:12;28.60;24.60
13436;DHT22;6790;49.520;8.504;2023-05-29T12:56:39;28.50;22.60
13436;DHT22;6790;49.520;8.504;2023-05-29T12:59:06;28.70;23.20
13436;DHT22;6790;49.520;8.504;2023-05-29T13:01:33;28.60;21.50
13436;DHT22;6790;49.520;8.504;2023-05-29T13:03:59;28.70;23.10
13436;DHT22;6790;49.520;8.504;2023-05-29T13:06:25;28.40;20.20
13436;DHT22;6790;49.520;8.504;2023-05-29T13:08:51;28.50;22.40
13436;DHT22;6790;49.520;8.504;2023-05-29T13:11:17;28.90;20.60
13436;DHT22;6790;49.520;8.504;2023-05-29T13:13:43;28.50;22.50
13436;DHT22;6790;49.520;8.504;2023-05-29T13:16:09;29.00;21.60
13436;DHT22;6790;49.520;8.504;2023-05-29T13:18:35;29.10;21.70
13436;DHT22;6790;49.520;8.504;2023-05-29T13:21:01;29.20;19.90
13436;DHT22;6790;49.520;8.504;2023-05-29T13:23:27;29.40;20.80
13436;DHT22;6790;49.520;8.504;2023-05-29T13:25:52;29.50;23.40
13436;DHT22;6790;49.520;8.504;2023-05-29T13:28:18;29.40;18.50
13436;DHT22;6790;49.520;8.504;2023-05-29T13:30:44;29.30;19.60
13436;DHT22;6790;49.520;8.504;2023-05-29T13:33:10;29.20;20.70
13436;DHT22;6790;49.520;8.504;2023-05-29T13:35:35;28.70;20.00
13436;DHT22;6790;49.520;8.504;2023-05-29T13:38:01;28.70;25.40
13436;DHT22;6790;49.520;8.504;2023-05-29T13:40:27;29.10;22.10
13436;DHT22;6790;49.520;8.504;2023-05-29T13:42:54;29.00;21.20
13436;DHT22;6790;49.520;8.504;2023-05-29T13:45:20;29.10;21.20
13436;DHT22;6790;49.520;8.504;2023-05-29T13:47:46;29.10;20.20
13436;DHT22;6790;49.520;8.504;2023-05-29T13:50:11;29.00;22.50
13436;DHT22;6790;49.520;8.504;2023-05-29T13:52:38;28.80;19.90
13436;DHT22;6790;49.520;8.504;2023-05-29T13:55:04;28.50;20.90
13436;DHT22;6790;49.520;8.504;2023-05-29T13:57:34;28.80;20.60
13436;DHT22;6790;49.520;8.504;2023-05-29T14:00:00;28.20;19.70
13436;DHT22;6790;49.520;8.504;2023-05-29T14:02:26;28.20;20.70
13436;DHT22;6790;49.520;8.504;2023-05-29T14:04:52;28.00;20.20
13436;DHT22;6790;49.520;8.504;2023-05-29T14:07:17;28.20;21.10
13436;DHT22;6790;49.520;8.504;2023-05-29T14:09:43;28.00;19.40
13436;DHT22;6790;49.520;8.504;2023-05-29T14:12:09;28.00;21.10
13436;DHT22;6790;49.520;8.504;2023-05-29T14:14:34;27.80;20.40
13436;DHT22;6790;49.520;8.504;2023-05-29T14:17:00;27.50;20.70
13436;DHT22;6790;49.520;8.504;2023-05-29T14:19:26;27.60;21.60
13436;DHT22;6790;49.520;8.504;2023-05-29T14:21:52;27.50;21.20
13436;DHT22;6790;49.520;8.504;2023-05-29T14:24:18;27.60;22.90
13436;DHT22;6790;49.520;8.504;2023-05-29T14:26:44;27.60;21.30
13436;DHT22;6790;49.520;8.504;2023-05-29T14:29:13;27.70;22.00
13436;DHT22;6790;49.520;8.504;2023-05-29T14:31:40;27.40;23.80
13436;DHT22;6790;49.520;8.504;2023-05-29T14:34:09;27.50;22.00
13436;DHT22;6790;49.520;8.504;2023-05-29T14:36:35;27.70;21.90
13436;DHT22;6790;49.520;8.504;2023-05-29T14:39:03;27.70;21.60
13436;DHT22;6790;49.520;8.504;2023-05-29T14:41:29;27.80;23.00
13436;DHT22;6790;49.520;8.504;2023-05-29T14:43:55;27.70;20.50
13436;DHT22;6790;49.520;8.504;2023-05-29T14:46:24;27.40;21.70
13436;DHT22;6790;49.520;8.504;2023-05-29T14:48:51;27.70;22.90
13436;DHT22;6790;49.520;8.504;2023-05-29T14:51:17;27.30;20.90
13436;DHT22;6790;49.520;8.504;2023-05-29T14:53:44;27.10;25.20
13436;DHT22;6790;49.520;8.504;2023-05-29T14:56:10;26.90;22.80
13436;DHT22;6790;49.520;8.504;2023-05-29T14:58:35;27.10;22.20
13436;DHT22;6790;49.520;8.504;2023-05-29T15:01:02;27.30;26.50
13436;DHT22;6790;49.520;8.504;2023-05-29T15:03:28;27.10;24.70
13436;DHT22;6790;49.520;8.504;2023-05-29T15:05:54;27.10;23.30
13436;DHT22;6790;49.520;8.504;2023-05-29T15:08:20;27.00;23.60
13436;DHT22;6790;49.520;8.504;2023-05-29T15:10:46;26.70;26.30
13436;DHT22;6790;49.520;8.504;2023-05-29T15:13:11;27.00;27.50
13436;DHT22;6790;49.520;8.504;2023-05-29T15:15:37;26.80;25.80
13436;DHT22;6790;49.520;8.504;2023-05-29T15:18:03;27.00;26.30
13436;DHT22;6790;49.520;8.504;2023-05-29T15:20:28;27.00;22.70
13436;DHT22;6790;49.520;8.504;2023-05-29T15:22:54;27.00;22.50
13436;DHT22;6790;49.520;8.504;2023-05-29T15:25:21;26.90;25.80
13436;DHT22;6790;49.520;8.504;2023-05-29T15:27:47;26.90;23.80
13436;DHT22;6790;49.520;8.504;2023-05-29T15:30:15;27.00;25.10
13436;DHT22;6790;49.520;8.504;2023-05-29T15:32:43;26.80;25.90
13436;DHT22;6790;49.520;8.504;2023-05-29T15:35:09;26.80;26.10
13436;DHT22;6790;49.520;8.504;2023-05-29T15:37:37;26.80;24.60
13436;DHT22;6790;49.520;8.504;2023-05-29T15:40:04;26.60;29.00
13436;DHT22;6790;49.520;8.504;2023-05-29T15:42:32;26.60;31.40
13436;DHT22;6790;49.520;8.504;2023-05-29T15:44:57;26.60;30.60
13436;DHT22;6790;49.520;8.504;2023-05-29T15:47:23;26.80;28.10
13436;DHT22;6790;49.520;8.504;2023-05-29T15:49:50;26.60;28.50
13436;DHT22;6790;49.520;8.504;2023-05-29T15:52:16;26.70;26.50
13436;DHT22;6790;49.520;8.504;2023-05-29T15:54:41;26.60;26.90
13436;DHT22;6790;49.520;8.504;2023-05-29T15:57:07;26.80;27.80
13436;DHT22;6790;49.520;8.504;2023-05-29T15:59:33;26.90;26.30
13436;DHT22;6790;49.520;8.504;2023-05-29T16:02:00;26.70;26.10
13436;DHT22;6790;49.520;8.504;2023-05-29T16:04:26;26.40;25.80
13436;DHT22;6790;49.520;8.504;2023-05-29T16:06:52;26.30;25.70
13436;DHT22;6790;49.520;8.504;2023-05-29T16:09:18;26.30;28.40